Flight Track Log - Related Links

Times and Time Zones

All times are in EDT time to prevent confusion due to time zone crossing. See the AMF1961 flight status page for this flight to view local times or setup timezone preferences in your user account.

Time Position Orientation Groundspeed Altitude Reporting Facility
EDT Latitude Longitude Course Direction KTS MPH feet Rate Location/Type
Wed 09:00:57 PM 48.7667 -122.5333 213° Southwest 110 127 900  Level Vancouver Center
Wed 09:01:57 PM 48.7333 -122.5667 213° Southwest 150 173 2,800 1,750 Climbing Vancouver Center
Wed 09:02:57 PM 48.6833 -122.5667 180° South 170 196 4,400 1,100 Climbing Vancouver Center
Wed 09:03:57 PM 48.6333 -122.5833 192° South 210 242 5,000 286 Climbing Vancouver Center
Wed 09:04:42 PM 48.5928 -122.5958 192° South 251 289 4,900  Descending Seattle Center
Wed 09:05:43 PM 48.5175 -122.6058 185° South 257 296 5,000 64 Climbing Seattle Center
Wed 09:06:16 PM 48.4867 -122.6067 181° South 269 310 5,000  Level Seattle Center
Wed 09:06:56 PM 48.4372 -122.6156 187° South 253 291 5,000  Level Seattle Center
Wed 09:07:17 PM 48.4225 -122.6175 185° South 235 270 5,000  Level Seattle Center
Wed 09:07:56 PM 48.3683 -122.6250 185° South 251 289 5,000  Level Seattle Center
Wed 09:08:18 PM 48.3500 -122.6269 184° South 251 289 5,000  Level Seattle Center
Wed 09:08:51 PM 48.3014 -122.6336 185° South 259 298 5,000  Level Seattle Center
Wed 09:09:19 PM 48.2697 -122.6389 186° South 253 291 5,000  Level Seattle Center
Wed 09:09:45 PM 48.2372 -122.6439 186° South 255 293 5,000  Level Seattle Center
Wed 09:10:20 PM 48.1953 -122.6503 186° South 252 290 5,000  Level Seattle Center
Wed 09:10:52 PM 48.1578 -122.6561 186° South 251 289 5,000  Level Seattle Center
Wed 09:11:21 PM 48.1256 -122.6606 185° South 253 291 5,000  Level Seattle Center
Wed 09:11:52 PM 48.0889 -122.6656 185° South 251 289 5,000  Level Seattle Center
Wed 09:12:22 PM 48.0567 -122.6717 187° South 250 288 5,000  Level Seattle Center
Wed 09:12:53 PM 48.0206 -122.6781 187° South 249 287 5,000  Level Seattle Center
Wed 09:13:23 PM 47.9878 -122.6828 186° South 250 288 5,000  Level Seattle Center
Wed 09:13:48 PM 47.9578 -122.6678 161° South 253 291 5,000 -98 Level Seattle Center
Wed 09:14:24 PM 47.9211 -122.6381 151° Southeast 246 283 4,900 -98 Descending Seattle Center
Wed 09:14:49 PM 47.8989 -122.6175 148° Southeast 250 288 4,900 -393 Level Seattle Center
Wed 09:15:25 PM 47.8614 -122.5853 150° Southeast 248 285 4,500 -984 Descending Seattle Center
Wed 09:15:50 PM 47.8372 -122.5658 152° Southeast 245 282 3,900 -1,377 Descending Seattle Center
Wed 09:16:26 PM 47.8039 -122.5342 147° Southeast 242 278 3,100 -787 Descending Seattle Center
Wed 09:16:51 PM 47.7833 -122.5194 154° Southeast 220 253 3,100 -197 Level Seattle Center
Wed 09:17:27 PM 47.7542 -122.4939 149° Southeast 209 241 2,900 -700 Descending Seattle Center
Wed 09:17:51 PM 47.7358 -122.4797 153° Southeast 197 227 2,400 -787 Descending Seattle Center
Wed 09:18:28 PM 47.7097 -122.4564 149° Southeast 188 216 2,100 -295 Descending Seattle Center
Wed 09:18:52 PM 47.6925 -122.4411 149° Southeast 166 191 2,100  Level Seattle Center
Wed 09:19:29 PM 47.6669 -122.4189 150° Southeast 169 194 2,100 -179 Level Seattle Center
Wed 09:19:59 PM 47.6483 -122.4061 155° Southeast 164 189 1,900 -492 Descending Seattle Center
Wed 09:20:30 PM 47.6278 -122.3864 147° Southeast 163 188 1,600 -484 Descending Seattle Center
Wed 09:21:01 PM 47.6106 -122.3711 149° Southeast 161 185 1,400 -393 Descending Seattle Center
Wed 09:21:31 PM 47.5894 -122.3536 151° Southeast 161 185 1,200 -590 Descending Seattle Center
Wed 09:22:02 PM 47.5717 -122.3400 153° Southeast 151 174 800 -787 Descending Seattle Center
Wed 09:22:32 PM 47.5544 -122.3242 148° Southeast 149 171 400 -800 Descending Seattle Center

Login

Don't have an account? Register now (free) for customized features, flight alerts, and more!